sensor_id;sensor_type;location;lat;lon;timestamp;P1;durP1;ratioP1;P2;durP2;ratioP2
54561;SDS011;69047;53.358;-1.486;2023-07-22T16:48:08;0.70;;;0.60;;
54561;SDS011;69047;53.358;-1.486;2023-07-22T16:50:33;3.70;;;0.60;;
54561;SDS011;69047;53.358;-1.486;2023-07-22T16:52:59;6.25;;;1.17;;
54561;SDS011;69047;53.358;-1.486;2023-07-22T16:55:28;2.05;;;0.90;;
54561;SDS011;69047;53.358;-1.486;2023-07-22T16:57:53;6.60;;;1.20;;
54561;SDS011;69047;53.358;-1.486;2023-07-22T17:00:19;2.00;;;0.80;;
54561;SDS011;69047;53.358;-1.486;2023-07-22T17:02:44;2.65;;;0.60;;
54561;SDS011;69047;53.358;-1.486;2023-07-22T17:05:10;1.73;;;0.60;;
54561;SDS011;69047;53.358;-1.486;2023-07-22T17:07:36;1.20;;;1.10;;
54561;SDS011;69047;53.358;-1.486;2023-07-22T17:10:03;0.75;;;0.50;;
54561;SDS011;69047;53.358;-1.486;2023-07-22T17:12:30;2.38;;;0.68;;
54561;SDS011;69047;53.358;-1.486;2023-07-22T17:14:55;1.13;;;0.70;;
54561;SDS011;69047;53.358;-1.486;2023-07-22T17:17:20;2.05;;;0.52;;
54561;SDS011;69047;53.358;-1.486;2023-07-22T17:19:46;1.17;;;0.80;;
54561;SDS011;69047;53.358;-1.486;2023-07-22T17:22:15;2.75;;;0.90;;
54561;SDS011;69047;53.358;-1.486;2023-07-22T17:24:43;2.60;;;0.70;;
54561;SDS011;69047;53.358;-1.486;2023-07-22T17:27:09;1.17;;;0.70;;
54561;SDS011;69047;53.358;-1.486;2023-07-22T17:29:34;3.47;;;3.17;;
54561;SDS011;69047;53.358;-1.486;2023-07-22T17:32:00;3.67;;;1.15;;
54561;SDS011;69047;53.358;-1.486;2023-07-22T17:34:25;2.10;;;1.63;;
54561;SDS011;69047;53.358;-1.486;2023-07-22T17:36:51;2.03;;;0.90;;
54561;SDS011;69047;53.358;-1.486;2023-07-22T17:39:16;3.10;;;0.98;;
54561;SDS011;69047;53.358;-1.486;2023-07-22T17:41:41;0.70;;;0.70;;
54561;SDS011;69047;53.358;-1.486;2023-07-22T17:44:07;0.70;;;0.70;;
54561;SDS011;69047;53.358;-1.486;2023-07-22T17:46:34;2.08;;;0.80;;
54561;SDS011;69047;53.358;-1.486;2023-07-22T17:49:00;1.13;;;0.70;;
54561;SDS011;69047;53.358;-1.486;2023-07-22T17:51:25;1.52;;;0.85;;
54561;SDS011;69047;53.358;-1.486;2023-07-22T17:53:51;1.42;;;0.77;;
54561;SDS011;69047;53.358;-1.486;2023-07-22T17:56:16;2.85;;;0.70;;
54561;SDS011;69047;53.358;-1.486;2023-07-22T17:58:41;1.10;;;0.70;;
54561;SDS011;69047;53.358;-1.486;2023-07-22T18:01:07;3.50;;;1.23;;
54561;SDS011;69047;53.358;-1.486;2023-07-22T18:03:32;3.90;;;1.42;;
54561;SDS011;69047;53.358;-1.486;2023-07-22T18:05:58;1.73;;;1.20;;
54561;SDS011;69047;53.358;-1.486;2023-07-22T18:08:23;2.90;;;1.92;;
54561;SDS011;69047;53.358;-1.486;2023-07-22T18:10:49;4.55;;;1.35;;
54561;SDS011;69047;53.358;-1.486;2023-07-22T18:13:14;1.80;;;0.98;;
54561;SDS011;69047;53.358;-1.486;2023-07-22T18:15:39;3.95;;;1.95;;
54561;SDS011;69047;53.358;-1.486;2023-07-22T18:18:05;3.08;;;1.60;;
54561;SDS011;69047;53.358;-1.486;2023-07-22T18:20:30;3.63;;;2.28;;
54561;SDS011;69047;53.358;-1.486;2023-07-22T18:22:56;2.72;;;2.08;;
54561;SDS011;69047;53.358;-1.486;2023-07-22T18:25:22;4.57;;;2.75;;
54561;SDS011;69047;53.358;-1.486;2023-07-22T18:27:47;4.15;;;2.13;;
54561;SDS011;69047;53.358;-1.486;2023-07-22T18:30:13;1.88;;;1.60;;
54561;SDS011;69047;53.358;-1.486;2023-07-22T18:32:38;4.13;;;1.90;;
54561;SDS011;69047;53.358;-1.486;2023-07-22T18:35:03;3.90;;;3.03;;
54561;SDS011;69047;53.358;-1.486;2023-07-22T18:37:30;2.80;;;2.35;;
54561;SDS011;69047;53.358;-1.486;2023-07-22T18:39:56;3.60;;;3.03;;
54561;SDS011;69047;53.358;-1.486;2023-07-22T18:42:21;8.00;;;6.90;;
54561;SDS011;69047;53.358;-1.486;2023-07-22T18:44:47;10.48;;;8.18;;
54561;SDS011;69047;53.358;-1.486;2023-07-22T18:47:13;12.15;;;10.80;;
54561;SDS011;69047;53.358;-1.486;2023-07-22T18:49:39;13.38;;;11.65;;
54561;SDS011;69047;53.358;-1.486;2023-07-22T18:52:04;12.18;;;8.75;;
54561;SDS011;69047;53.358;-1.486;2023-07-22T18:54:31;8.88;;;7.70;;
54561;SDS011;69047;53.358;-1.486;2023-07-22T18:56:56;5.47;;;4.65;;
54561;SDS011;69047;53.358;-1.486;2023-07-22T18:59:22;7.30;;;5.18;;
54561;SDS011;69047;53.358;-1.486;2023-07-22T19:01:47;11.20;;;7.15;;
54561;SDS011;69047;53.358;-1.486;2023-07-22T19:04:13;10.43;;;8.85;;
54561;SDS011;69047;53.358;-1.486;2023-07-22T19:06:39;9.13;;;7.75;;
54561;SDS011;69047;53.358;-1.486;2023-07-22T19:09:04;9.27;;;6.43;;
54561;SDS011;69047;53.358;-1.486;2023-07-22T19:11:30;8.63;;;6.97;;
54561;SDS011;69047;53.358;-1.486;2023-07-22T19:13:56;7.35;;;5.85;;
54561;SDS011;69047;53.358;-1.486;2023-07-22T19:16:24;11.88;;;8.02;;
54561;SDS011;69047;53.358;-1.486;2023-07-22T19:18:50;21.13;;;15.40;;
54561;SDS011;69047;53.358;-1.486;2023-07-22T19:21:15;22.58;;;14.80;;
54561;SDS011;69047;53.358;-1.486;2023-07-22T19:23:41;20.48;;;13.52;;
54561;SDS011;69047;53.358;-1.486;2023-07-22T19:26:06;20.23;;;13.50;;
54561;SDS011;69047;53.358;-1.486;2023-07-22T19:28:32;18.13;;;10.73;;
54561;SDS011;69047;53.358;-1.486;2023-07-22T19:30:57;16.30;;;8.27;;
54561;SDS011;69047;53.358;-1.486;2023-07-22T19:33:23;8.07;;;4.65;;
54561;SDS011;69047;53.358;-1.486;2023-07-22T19:36:02;6.50;;;4.03;;
54561;SDS011;69047;53.358;-1.486;2023-07-22T19:38:30;5.50;;;3.90;;
54561;SDS011;69047;53.358;-1.486;2023-07-22T19:41:03;5.72;;;3.72;;
54561;SDS011;69047;53.358;-1.486;2023-07-22T19:43:30;14.88;;;11.27;;
54561;SDS011;69047;53.358;-1.486;2023-07-22T19:46:02;15.13;;;11.23;;
54561;SDS011;69047;53.358;-1.486;2023-07-22T19:48:29;14.02;;;10.18;;
54561;SDS011;69047;53.358;-1.486;2023-07-22T19:50:57;10.23;;;7.10;;
54561;SDS011;69047;53.358;-1.486;2023-07-22T19:53:23;4.10;;;3.17;;
54561;SDS011;69047;53.358;-1.486;2023-07-22T19:55:49;3.05;;;2.30;;
54561;SDS011;69047;53.358;-1.486;2023-07-22T19:58:14;5.35;;;2.40;;
54561;SDS011;69047;53.358;-1.486;2023-07-22T20:00:40;3.63;;;2.50;;
54561;SDS011;69047;53.358;-1.486;2023-07-22T20:03:05;3.17;;;2.40;;
54561;SDS011;69047;53.358;-1.486;2023-07-22T20:05:31;5.68;;;2.85;;
54561;SDS011;69047;53.358;-1.486;2023-07-22T20:07:57;4.88;;;2.83;;
54561;SDS011;69047;53.358;-1.486;2023-07-22T20:10:22;4.07;;;2.30;;
54561;SDS011;69047;53.358;-1.486;2023-07-22T20:12:48;3.15;;;2.08;;
54561;SDS011;69047;53.358;-1.486;2023-07-22T20:15:14;6.75;;;2.10;;
54561;SDS011;69047;53.358;-1.486;2023-07-22T20:17:39;2.00;;;1.80;;
54561;SDS011;69047;53.358;-1.486;2023-07-22T20:20:05;10.38;;;2.45;;
54561;SDS011;69047;53.358;-1.486;2023-07-22T20:22:31;8.77;;;2.30;;
54561;SDS011;69047;53.358;-1.486;2023-07-22T20:24:57;3.85;;;2.00;;
54561;SDS011;69047;53.358;-1.486;2023-07-22T20:27:22;7.50;;;2.38;;
54561;SDS011;69047;53.358;-1.486;2023-07-22T20:29:47;7.70;;;2.42;;
54561;SDS011;69047;53.358;-1.486;2023-07-22T20:32:13;3.88;;;2.40;;
54561;SDS011;69047;53.358;-1.486;2023-07-22T20:34:38;3.22;;;2.40;;
54561;SDS011;69047;53.358;-1.486;2023-07-22T20:37:03;5.57;;;2.95;;
54561;SDS011;69047;53.358;-1.486;2023-07-22T20:39:29;4.70;;;2.13;;
54561;SDS011;69047;53.358;-1.486;2023-07-22T20:41:55;2.53;;;2.17;;
54561;SDS011;69047;53.358;-1.486;2023-07-22T20:44:20;2.45;;;2.17;;
54561;SDS011;69047;53.358;-1.486;2023-07-22T20:46:46;2.88;;;1.83;;
54561;SDS011;69047;53.358;-1.486;2023-07-22T20:49:12;4.25;;;2.47;;
54561;SDS011;69047;53.358;-1.486;2023-07-22T20:51:38;5.78;;;2.03;;
54561;SDS011;69047;53.358;-1.486;2023-07-22T20:54:04;5.50;;;1.90;;
54561;SDS011;69047;53.358;-1.486;2023-07-22T20:56:29;4.72;;;2.10;;
54561;SDS011;69047;53.358;-1.486;2023-07-22T20:58:55;7.43;;;2.55;;
54561;SDS011;69047;53.358;-1.486;2023-07-22T21:01:21;3.35;;;2.38;;
54561;SDS011;69047;53.358;-1.486;2023-07-22T21:03:46;3.85;;;2.90;;
54561;SDS011;69047;53.358;-1.486;2023-07-22T21:06:12;7.78;;;3.42;;
54561;SDS011;69047;53.358;-1.486;2023-07-22T21:08:37;11.38;;;3.78;;
54561;SDS011;69047;53.358;-1.486;2023-07-22T21:11:03;4.45;;;2.70;;
54561;SDS011;69047;53.358;-1.486;2023-07-22T21:13:28;4.88;;;2.78;;
54561;SDS011;69047;53.358;-1.486;2023-07-22T21:16:00;6.75;;;2.72;;
54561;SDS011;69047;53.358;-1.486;2023-07-22T21:18:27;5.07;;;2.97;;
54561;SDS011;69047;53.358;-1.486;2023-07-22T21:20:52;2.88;;;2.05;;
54561;SDS011;69047;53.358;-1.486;2023-07-22T21:23:18;2.63;;;2.42;;
54561;SDS011;69047;53.358;-1.486;2023-07-22T21:25:43;2.20;;;1.90;;
54561;SDS011;69047;53.358;-1.486;2023-07-22T21:28:08;3.55;;;2.17;;
54561;SDS011;69047;53.358;-1.486;2023-07-22T21:30:34;3.90;;;1.50;;
54561;SDS011;69047;53.358;-1.486;2023-07-22T21:32:59;4.88;;;1.40;;
54561;SDS011;69047;53.358;-1.486;2023-07-22T21:35:25;4.35;;;1.75;;
54561;SDS011;69047;53.358;-1.486;2023-07-22T21:37:50;2.85;;;1.25;;
54561;SDS011;69047;53.358;-1.486;2023-07-22T21:40:16;5.82;;;1.30;;
54561;SDS011;69047;53.358;-1.486;2023-07-22T21:42:41;1.50;;;1.40;;
54561;SDS011;69047;53.358;-1.486;2023-07-22T21:45:08;1.10;;;1.00;;
54561;SDS011;69047;53.358;-1.486;2023-07-22T21:47:35;4.85;;;1.48;;
54561;SDS011;69047;53.358;-1.486;2023-07-22T21:50:01;1.23;;;1.00;;
54561;SDS011;69047;53.358;-1.486;2023-07-22T21:52:26;5.65;;;1.05;;
54561;SDS011;69047;53.358;-1.486;2023-07-22T21:54:52;2.78;;;1.25;;
54561;SDS011;69047;53.358;-1.486;2023-07-22T21:57:17;3.10;;;0.90;;
54561;SDS011;69047;53.358;-1.486;2023-07-22T21:59:43;1.08;;;0.98;;
54561;SDS011;69047;53.358;-1.486;2023-07-22T22:02:08;2.05;;;1.23;;
54561;SDS011;69047;53.358;-1.486;2023-07-22T22:04:37;4.70;;;1.00;;
54561;SDS011;69047;53.358;-1.486;2023-07-22T22:07:02;3.22;;;0.73;;
54561;SDS011;69047;53.358;-1.486;2023-07-22T22:09:28;6.57;;;1.33;;
54561;SDS011;69047;53.358;-1.486;2023-07-22T22:11:53;5.53;;;0.70;;
54561;SDS011;69047;53.358;-1.486;2023-07-22T22:14:18;3.80;;;0.80;;
54561;SDS011;69047;53.358;-1.486;2023-07-22T22:16:44;2.78;;;0.77;;
54561;SDS011;69047;53.358;-1.486;2023-07-22T22:19:09;2.22;;;0.95;;
54561;SDS011;69047;53.358;-1.486;2023-07-22T22:21:34;2.47;;;0.70;;
54561;SDS011;69047;53.358;-1.486;2023-07-22T22:24:00;8.35;;;0.70;;
54561;SDS011;69047;53.358;-1.486;2023-07-22T22:26:25;1.05;;;0.80;;
54561;SDS011;69047;53.358;-1.486;2023-07-22T22:28:50;0.90;;;0.60;;
54561;SDS011;69047;53.358;-1.486;2023-07-22T22:31:16;2.72;;;1.02;;
54561;SDS011;69047;53.358;-1.486;2023-07-22T22:33:42;3.08;;;0.90;;
54561;SDS011;69047;53.358;-1.486;2023-07-22T22:36:08;5.63;;;1.00;;
54561;SDS011;69047;53.358;-1.486;2023-07-22T22:38:33;1.67;;;0.88;;
54561;SDS011;69047;53.358;-1.486;2023-07-22T22:40:59;1.98;;;0.65;;
54561;SDS011;69047;53.358;-1.486;2023-07-22T22:43:24;4.68;;;0.60;;
54561;SDS011;69047;53.358;-1.486;2023-07-22T22:45:49;2.13;;;0.75;;
54561;SDS011;69047;53.358;-1.486;2023-07-22T22:48:15;3.15;;;0.80;;
54561;SDS011;69047;53.358;-1.486;2023-07-22T22:50:44;3.25;;;0.77;;
54561;SDS011;69047;53.358;-1.486;2023-07-22T22:53:10;1.52;;;0.50;;
54561;SDS011;69047;53.358;-1.486;2023-07-22T22:55:35;2.95;;;0.70;;
54561;SDS011;69047;53.358;-1.486;2023-07-22T22:58:01;3.97;;;0.90;;
54561;SDS011;69047;53.358;-1.486;2023-07-22T23:00:26;1.02;;;0.60;;
54561;SDS011;69047;53.358;-1.486;2023-07-22T23:02:52;6.50;;;0.80;;
54561;SDS011;69047;53.358;-1.486;2023-07-22T23:05:18;1.08;;;0.52;;
54561;SDS011;69047;53.358;-1.486;2023-07-22T23:07:44;5.05;;;0.70;;
54561;SDS011;69047;53.358;-1.486;2023-07-22T23:10:09;1.27;;;0.70;;
54561;SDS011;69047;53.358;-1.486;2023-07-22T23:12:35;1.50;;;0.60;;
54561;SDS011;69047;53.358;-1.486;2023-07-22T23:15:05;3.40;;;0.75;;
54561;SDS011;69047;53.358;-1.486;2023-07-22T23:17:32;6.40;;;0.57;;
54561;SDS011;69047;53.358;-1.486;2023-07-22T23:19:57;0.70;;;0.50;;
54561;SDS011;69047;53.358;-1.486;2023-07-22T23:22:23;9.35;;;0.50;;
54561;SDS011;69047;53.358;-1.486;2023-07-22T23:24:48;0.30;;;0.30;;
54561;SDS011;69047;53.358;-1.486;2023-07-22T23:27:14;12.13;;;0.60;;
54561;SDS011;69047;53.358;-1.486;2023-07-22T23:29:42;5.10;;;0.50;;
54561;SDS011;69047;53.358;-1.486;2023-07-22T23:32:07;1.55;;;0.55;;
54561;SDS011;69047;53.358;-1.486;2023-07-22T23:34:34;1.02;;;0.38;;
54561;SDS011;69047;53.358;-1.486;2023-07-22T23:36:59;0.30;;;0.30;;
54561;SDS011;69047;53.358;-1.486;2023-07-22T23:39:25;4.72;;;0.65;;
54561;SDS011;69047;53.358;-1.486;2023-07-22T23:41:50;2.30;;;0.50;;
54561;SDS011;69047;53.358;-1.486;2023-07-22T23:44:15;0.98;;;0.70;;
54561;SDS011;69047;53.358;-1.486;2023-07-22T23:46:41;0.85;;;0.40;;
54561;SDS011;69047;53.358;-1.486;2023-07-22T23:49:06;1.17;;;0.55;;
54561;SDS011;69047;53.358;-1.486;2023-07-22T23:51:31;3.40;;;1.02;;
54561;SDS011;69047;53.358;-1.486;2023-07-22T23:53:57;0.43;;;0.32;;
54561;SDS011;69047;53.358;-1.486;2023-07-22T23:56:22;1.85;;;0.50;;
54561;SDS011;69047;53.358;-1.486;2023-07-22T23:58:48;1.45;;;0.52;;
